sensor_id;sensor_type;location;lat;lon;timestamp;temperature;humidity
56256;DHT22;57229;51.432;-2.598;2022-08-18T00:00:32;22.90;90.60
56256;DHT22;57229;51.432;-2.598;2022-08-18T00:03:02;22.90;90.70
56256;DHT22;57229;51.432;-2.598;2022-08-18T00:05:30;22.90;91.00
56256;DHT22;57229;51.432;-2.598;2022-08-18T00:07:56;22.90;90.60
56256;DHT22;57229;51.432;-2.598;2022-08-18T00:10:24;22.90;90.60
56256;DHT22;57229;51.432;-2.598;2022-08-18T00:12:50;22.90;90.60
56256;DHT22;57229;51.432;-2.598;2022-08-18T00:15:17;22.90;90.60
56256;DHT22;57229;51.432;-2.598;2022-08-18T00:17:44;22.90;90.60
56256;DHT22;57229;51.432;-2.598;2022-08-18T00:20:17;22.90;90.60
56256;DHT22;57229;51.432;-2.598;2022-08-18T00:22:44;22.90;90.60
56256;DHT22;57229;51.432;-2.598;2022-08-18T00:25:12;22.90;90.60
56256;DHT22;57229;51.432;-2.598;2022-08-18T00:27:38;22.90;90.60
56256;DHT22;57229;51.432;-2.598;2022-08-18T00:30:14;22.90;90.50
56256;DHT22;57229;51.432;-2.598;2022-08-18T00:32:54;22.90;90.60
56256;DHT22;57229;51.432;-2.598;2022-08-18T00:35:37;22.90;90.60
56256;DHT22;57229;51.432;-2.598;2022-08-18T00:38:07;22.90;90.50
56256;DHT22;57229;51.432;-2.598;2022-08-18T00:40:44;22.90;90.50
56256;DHT22;57229;51.432;-2.598;2022-08-18T00:45:57;22.90;90.50
56256;DHT22;57229;51.432;-2.598;2022-08-18T00:48:23;22.90;90.50
56256;DHT22;57229;51.432;-2.598;2022-08-18T00:50:56;22.90;90.50
56256;DHT22;57229;51.432;-2.598;2022-08-18T00:53:45;22.90;90.80
56256;DHT22;57229;51.432;-2.598;2022-08-18T00:56:20;22.90;90.50
56256;DHT22;57229;51.432;-2.598;2022-08-18T00:59:09;22.90;90.50
56256;DHT22;57229;51.432;-2.598;2022-08-18T01:01:35;22.90;90.50
56256;DHT22;57229;51.432;-2.598;2022-08-18T01:04:11;22.90;90.50
56256;DHT22;57229;51.432;-2.598;2022-08-18T01:06:43;22.90;90.50
56256;DHT22;57229;51.432;-2.598;2022-08-18T01:09:11;22.90;90.50
56256;DHT22;57229;51.432;-2.598;2022-08-18T01:11:37;22.90;90.40
56256;DHT22;57229;51.432;-2.598;2022-08-18T01:14:08;22.90;90.40
56256;DHT22;57229;51.432;-2.598;2022-08-18T01:16:34;22.90;90.40
56256;DHT22;57229;51.432;-2.598;2022-08-18T01:19:19;22.90;90.40
56256;DHT22;57229;51.432;-2.598;2022-08-18T01:22:10;22.90;90.40
56256;DHT22;57229;51.432;-2.598;2022-08-18T01:24:38;22.90;90.40
56256;DHT22;57229;51.432;-2.598;2022-08-18T01:27:24;22.80;90.40
56256;DHT22;57229;51.432;-2.598;2022-08-18T01:29:51;22.90;90.40
56256;DHT22;57229;51.432;-2.598;2022-08-18T01:32:21;22.90;90.40
56256;DHT22;57229;51.432;-2.598;2022-08-18T01:34:49;22.80;90.40
56256;DHT22;57229;51.432;-2.598;2022-08-18T01:37:17;22.80;90.40
56256;DHT22;57229;51.432;-2.598;2022-08-18T01:39:44;22.80;90.40
56256;DHT22;57229;51.432;-2.598;2022-08-18T01:42:11;22.80;90.40
56256;DHT22;57229;51.432;-2.598;2022-08-18T01:44:39;22.80;90.30
56256;DHT22;57229;51.432;-2.598;2022-08-18T01:47:07;22.80;90.30
56256;DHT22;57229;51.432;-2.598;2022-08-18T01:49:33;22.90;90.40
56256;DHT22;57229;51.432;-2.598;2022-08-18T01:51:59;22.80;90.30
56256;DHT22;57229;51.432;-2.598;2022-08-18T01:54:24;22.80;90.30
56256;DHT22;57229;51.432;-2.598;2022-08-18T01:56:55;22.80;90.30
56256;DHT22;57229;51.432;-2.598;2022-08-18T01:59:21;22.80;90.30
56256;DHT22;57229;51.432;-2.598;2022-08-18T02:01:47;22.80;90.30
56256;DHT22;57229;51.432;-2.598;2022-08-18T02:04:15;22.80;90.30
56256;DHT22;57229;51.432;-2.598;2022-08-18T02:06:41;22.80;90.30
56256;DHT22;57229;51.432;-2.598;2022-08-18T02:09:07;22.80;90.30
56256;DHT22;57229;51.432;-2.598;2022-08-18T02:11:33;22.80;90.30
56256;DHT22;57229;51.432;-2.598;2022-08-18T02:13:59;22.80;90.20
56256;DHT22;57229;51.432;-2.598;2022-08-18T02:16:24;22.80;90.20
56256;DHT22;57229;51.432;-2.598;2022-08-18T02:18:50;22.80;90.30
56256;DHT22;57229;51.432;-2.598;2022-08-18T02:21:18;22.80;90.20
56256;DHT22;57229;51.432;-2.598;2022-08-18T02:23:45;22.80;90.20
56256;DHT22;57229;51.432;-2.598;2022-08-18T02:26:13;22.80;90.20
56256;DHT22;57229;51.432;-2.598;2022-08-18T02:28:40;22.80;90.20
56256;DHT22;57229;51.432;-2.598;2022-08-18T02:31:08;22.80;90.20
56256;DHT22;57229;51.432;-2.598;2022-08-18T02:33:35;22.80;90.20
56256;DHT22;57229;51.432;-2.598;2022-08-18T02:36:00;22.80;90.20
56256;DHT22;57229;51.432;-2.598;2022-08-18T02:38:27;22.80;90.10
56256;DHT22;57229;51.432;-2.598;2022-08-18T02:40:57;22.80;90.20
56256;DHT22;57229;51.432;-2.598;2022-08-18T02:43:25;22.80;90.20
56256;DHT22;57229;51.432;-2.598;2022-08-18T02:45:51;22.80;90.20
56256;DHT22;57229;51.432;-2.598;2022-08-18T02:48:17;22.80;90.10
56256;DHT22;57229;51.432;-2.598;2022-08-18T02:51:13;22.70;90.10
56256;DHT22;57229;51.432;-2.598;2022-08-18T02:53:41;22.70;90.10
56256;DHT22;57229;51.432;-2.598;2022-08-18T02:56:22;22.80;90.10
56256;DHT22;57229;51.432;-2.598;2022-08-18T02:59:08;22.70;90.10
56256;DHT22;57229;51.432;-2.598;2022-08-18T03:01:36;22.70;90.10
56256;DHT22;57229;51.432;-2.598;2022-08-18T03:04:05;22.70;90.10
56256;DHT22;57229;51.432;-2.598;2022-08-18T03:06:33;22.80;90.10
56256;DHT22;57229;51.432;-2.598;2022-08-18T03:09:00;22.80;90.10
56256;DHT22;57229;51.432;-2.598;2022-08-18T03:11:28;22.70;90.00
56256;DHT22;57229;51.432;-2.598;2022-08-18T03:13:55;22.80;90.40
56256;DHT22;57229;51.432;-2.598;2022-08-18T03:16:22;22.70;90.00
56256;DHT22;57229;51.432;-2.598;2022-08-18T03:18:50;22.70;90.00
56256;DHT22;57229;51.432;-2.598;2022-08-18T03:21:20;22.70;90.00
56256;DHT22;57229;51.432;-2.598;2022-08-18T03:23:47;22.70;90.00
56256;DHT22;57229;51.432;-2.598;2022-08-18T03:26:14;22.70;90.00
56256;DHT22;57229;51.432;-2.598;2022-08-18T03:28:43;22.70;90.00
56256;DHT22;57229;51.432;-2.598;2022-08-18T03:31:10;22.80;90.00
56256;DHT22;57229;51.432;-2.598;2022-08-18T03:33:37;22.70;90.00
56256;DHT22;57229;51.432;-2.598;2022-08-18T03:36:08;22.70;90.00
56256;DHT22;57229;51.432;-2.598;2022-08-18T03:38:35;22.70;90.00
56256;DHT22;57229;51.432;-2.598;2022-08-18T03:41:00;22.70;90.00
56256;DHT22;57229;51.432;-2.598;2022-08-18T03:43:26;22.70;90.00
56256;DHT22;57229;51.432;-2.598;2022-08-18T03:45:53;22.70;89.90
56256;DHT22;57229;51.432;-2.598;2022-08-18T03:48:19;22.70;89.90
56256;DHT22;57229;51.432;-2.598;2022-08-18T03:50:46;22.70;89.80
56256;DHT22;57229;51.432;-2.598;2022-08-18T03:53:13;22.70;89.90
56256;DHT22;57229;51.432;-2.598;2022-08-18T03:55:42;22.70;89.80
56256;DHT22;57229;51.432;-2.598;2022-08-18T03:58:08;22.70;89.80
56256;DHT22;57229;51.432;-2.598;2022-08-18T04:00:38;22.70;89.90
56256;DHT22;57229;51.432;-2.598;2022-08-18T04:03:04;22.70;89.70
56256;DHT22;57229;51.432;-2.598;2022-08-18T04:05:30;22.70;89.70
56256;DHT22;57229;51.432;-2.598;2022-08-18T04:07:56;22.70;89.80
56256;DHT22;57229;51.432;-2.598;2022-08-18T04:10:23;22.70;89.70
56256;DHT22;57229;51.432;-2.598;2022-08-18T04:12:49;22.70;89.60
56256;DHT22;57229;51.432;-2.598;2022-08-18T04:15:16;22.70;89.50
56256;DHT22;57229;51.432;-2.598;2022-08-18T04:17:42;22.70;89.60
56256;DHT22;57229;51.432;-2.598;2022-08-18T04:20:10;22.70;89.60
56256;DHT22;57229;51.432;-2.598;2022-08-18T04:22:37;22.70;89.60
56256;DHT22;57229;51.432;-2.598;2022-08-18T04:25:03;22.70;89.60
56256;DHT22;57229;51.432;-2.598;2022-08-18T04:27:29;22.70;89.50
56256;DHT22;57229;51.432;-2.598;2022-08-18T04:29:54;22.70;89.50
56256;DHT22;57229;51.432;-2.598;2022-08-18T04:32:23;22.70;89.50
56256;DHT22;57229;51.432;-2.598;2022-08-18T04:34:49;22.70;89.50
56256;DHT22;57229;51.432;-2.598;2022-08-18T04:37:16;22.70;89.50
56256;DHT22;57229;51.432;-2.598;2022-08-18T04:39:42;22.70;89.50
56256;DHT22;57229;51.432;-2.598;2022-08-18T04:42:08;22.60;89.40
56256;DHT22;57229;51.432;-2.598;2022-08-18T04:44:35;22.70;89.40
56256;DHT22;57229;51.432;-2.598;2022-08-18T04:47:02;22.60;89.40
56256;DHT22;57229;51.432;-2.598;2022-08-18T04:49:28;22.70;89.50
56256;DHT22;57229;51.432;-2.598;2022-08-18T04:51:57;22.60;89.40
56256;DHT22;57229;51.432;-2.598;2022-08-18T04:54:41;22.60;90.00
56256;DHT22;57229;51.432;-2.598;2022-08-18T04:57:12;22.60;89.20
56256;DHT22;57229;51.432;-2.598;2022-08-18T04:59:39;22.60;89.30
56256;DHT22;57229;51.432;-2.598;2022-08-18T05:02:06;22.60;89.30
56256;DHT22;57229;51.432;-2.598;2022-08-18T05:04:34;22.60;89.20
56256;DHT22;57229;51.432;-2.598;2022-08-18T05:07:04;22.70;89.30
56256;DHT22;57229;51.432;-2.598;2022-08-18T05:09:31;22.60;89.30
56256;DHT22;57229;51.432;-2.598;2022-08-18T05:11:56;22.70;89.20
56256;DHT22;57229;51.432;-2.598;2022-08-18T05:14:22;22.60;89.30
56256;DHT22;57229;51.432;-2.598;2022-08-18T05:16:49;22.60;89.10
56256;DHT22;57229;51.432;-2.598;2022-08-18T05:19:19;22.60;89.20
56256;DHT22;57229;51.432;-2.598;2022-08-18T05:21:47;22.60;89.20
56256;DHT22;57229;51.432;-2.598;2022-08-18T05:24:13;22.60;89.10
56256;DHT22;57229;51.432;-2.598;2022-08-18T05:26:38;22.60;89.20
56256;DHT22;57229;51.432;-2.598;2022-08-18T05:29:06;22.60;89.10
56256;DHT22;57229;51.432;-2.598;2022-08-18T05:31:32;22.60;89.10
56256;DHT22;57229;51.432;-2.598;2022-08-18T05:33:58;22.60;89.20
56256;DHT22;57229;51.432;-2.598;2022-08-18T05:39:35;22.60;89.00
56256;DHT22;57229;51.432;-2.598;2022-08-18T05:42:16;22.60;89.10
56256;DHT22;57229;51.432;-2.598;2022-08-18T05:44:50;22.60;89.00
56256;DHT22;57229;51.432;-2.598;2022-08-18T05:47:30;22.60;89.00
56256;DHT22;57229;51.432;-2.598;2022-08-18T05:50:08;22.60;89.00
56256;DHT22;57229;51.432;-2.598;2022-08-18T05:52:47;22.60;89.00
56256;DHT22;57229;51.432;-2.598;2022-08-18T05:55:28;22.60;89.00
56256;DHT22;57229;51.432;-2.598;2022-08-18T05:58:22;22.60;88.90
56256;DHT22;57229;51.432;-2.598;2022-08-18T06:00:54;22.60;88.90
56256;DHT22;57229;51.432;-2.598;2022-08-18T06:03:25;22.60;88.80
56256;DHT22;57229;51.432;-2.598;2022-08-18T06:05:58;22.60;88.80
56256;DHT22;57229;51.432;-2.598;2022-08-18T06:08:35;22.60;88.80
56256;DHT22;57229;51.432;-2.598;2022-08-18T06:11:03;22.60;88.80
56256;DHT22;57229;51.432;-2.598;2022-08-18T06:13:30;22.60;88.90
56256;DHT22;57229;51.432;-2.598;2022-08-18T06:18:59;22.60;88.80
56256;DHT22;57229;51.432;-2.598;2022-08-18T06:27:07;22.60;88.70
56256;DHT22;57229;51.432;-2.598;2022-08-18T06:30:04;22.60;88.70
56256;DHT22;57229;51.432;-2.598;2022-08-18T06:33:24;22.60;88.60
56256;DHT22;57229;51.432;-2.598;2022-08-18T06:35:49;22.60;88.60
56256;DHT22;57229;51.432;-2.598;2022-08-18T06:41:41;22.60;88.50
56256;DHT22;57229;51.432;-2.598;2022-08-18T06:44:12;22.60;88.60
56256;DHT22;57229;51.432;-2.598;2022-08-18T06:49:42;22.60;88.50
56256;DHT22;57229;51.432;-2.598;2022-08-18T06:54:46;22.60;88.50
56256;DHT22;57229;51.432;-2.598;2022-08-18T06:57:36;22.60;88.40
56256;DHT22;57229;51.432;-2.598;2022-08-18T07:00:24;22.60;88.30
56256;DHT22;57229;51.432;-2.598;2022-08-18T07:02:54;22.60;88.30
56256;DHT22;57229;51.432;-2.598;2022-08-18T07:05:30;22.60;88.30
56256;DHT22;57229;51.432;-2.598;2022-08-18T07:08:17;22.60;88.20
56256;DHT22;57229;51.432;-2.598;2022-08-18T07:10:47;22.60;88.20
56256;DHT22;57229;51.432;-2.598;2022-08-18T07:15:41;22.60;87.90
56256;DHT22;57229;51.432;-2.598;2022-08-18T07:18:11;22.60;87.90
56256;DHT22;57229;51.432;-2.598;2022-08-18T07:20:45;22.60;87.90
56256;DHT22;57229;51.432;-2.598;2022-08-18T07:23:30;22.70;88.00
56256;DHT22;57229;51.432;-2.598;2022-08-18T07:33:55;22.60;87.70
56256;DHT22;57229;51.432;-2.598;2022-08-18T07:36:25;22.70;87.70
56256;DHT22;57229;51.432;-2.598;2022-08-18T07:38:56;22.70;87.70
56256;DHT22;57229;51.432;-2.598;2022-08-18T07:41:29;22.70;87.60
56256;DHT22;57229;51.432;-2.598;2022-08-18T07:47:16;22.70;87.60
56256;DHT22;57229;51.432;-2.598;2022-08-18T07:49:44;22.60;87.60
56256;DHT22;57229;51.432;-2.598;2022-08-18T07:52:24;22.60;87.50
56256;DHT22;57229;51.432;-2.598;2022-08-18T07:54:58;22.60;87.50
56256;DHT22;57229;51.432;-2.598;2022-08-18T07:57:42;22.60;87.50
56256;DHT22;57229;51.432;-2.598;2022-08-18T08:00:44;22.60;87.40
56256;DHT22;57229;51.432;-2.598;2022-08-18T08:11:57;22.70;87.60
56256;DHT22;57229;51.432;-2.598;2022-08-18T08:14:44;22.70;87.30
56256;DHT22;57229;51.432;-2.598;2022-08-18T08:17:29;22.70;87.40
56256;DHT22;57229;51.432;-2.598;2022-08-18T08:20:30;22.70;87.40
56256;DHT22;57229;51.432;-2.598;2022-08-18T08:23:08;22.70;87.40
56256;DHT22;57229;51.432;-2.598;2022-08-18T08:25:59;22.70;87.40
56256;DHT22;57229;51.432;-2.598;2022-08-18T08:28:35;22.70;87.50
56256;DHT22;57229;51.432;-2.598;2022-08-18T08:33:50;22.80;87.50
56256;DHT22;57229;51.432;-2.598;2022-08-18T08:36:25;22.80;87.40
56256;DHT22;57229;51.432;-2.598;2022-08-18T08:39:00;22.80;87.40
56256;DHT22;57229;51.432;-2.598;2022-08-18T08:41:35;22.80;87.40
56256;DHT22;57229;51.432;-2.598;2022-08-18T08:49:38;22.90;87.40
56256;DHT22;57229;51.432;-2.598;2022-08-18T08:52:39;22.90;87.40
56256;DHT22;57229;51.432;-2.598;2022-08-18T08:55:13;22.90;87.40
56256;DHT22;57229;51.432;-2.598;2022-08-18T08:57:48;22.90;87.40
56256;DHT22;57229;51.432;-2.598;2022-08-18T09:00:14;22.90;87.30
56256;DHT22;57229;51.432;-2.598;2022-08-18T09:05:27;22.90;87.20
56256;DHT22;57229;51.432;-2.598;2022-08-18T09:18:46;22.90;87.20
56256;DHT22;57229;51.432;-2.598;2022-08-18T09:24:29;23.00;87.40
56256;DHT22;57229;51.432;-2.598;2022-08-18T09:38:05;23.00;87.30
56256;DHT22;57229;51.432;-2.598;2022-08-18T09:40:54;23.00;87.20
56256;DHT22;57229;51.432;-2.598;2022-08-18T09:51:59;23.10;87.20
56256;DHT22;57229;51.432;-2.598;2022-08-18T09:54:28;23.10;87.20
56256;DHT22;57229;51.432;-2.598;2022-08-18T10:07:51;23.10;87.30
56256;DHT22;57229;51.432;-2.598;2022-08-18T10:21:25;23.10;87.10
56256;DHT22;57229;51.432;-2.598;2022-08-18T10:24:13;23.10;86.90
56256;DHT22;57229;51.432;-2.598;2022-08-18T10:34:40;23.20;86.90
56256;DHT22;57229;51.432;-2.598;2022-08-18T10:37:25;23.40;86.30
56256;DHT22;57229;51.432;-2.598;2022-08-18T10:39:56;23.70;85.70
56256;DHT22;57229;51.432;-2.598;2022-08-18T10:42:33;23.90;84.70
56256;DHT22;57229;51.432;-2.598;2022-08-18T10:45:28;24.10;84.30
56256;DHT22;57229;51.432;-2.598;2022-08-18T10:47:59;24.40;83.50
56256;DHT22;57229;51.432;-2.598;2022-08-18T10:50:47;24.70;82.60
56256;DHT22;57229;51.432;-2.598;2022-08-18T10:56:20;25.00;81.10
56256;DHT22;57229;51.432;-2.598;2022-08-18T10:59:13;25.00;81.30
56256;DHT22;57229;51.432;-2.598;2022-08-18T11:04:43;25.10;80.70
56256;DHT22;57229;51.432;-2.598;2022-08-18T11:07:31;25.40;80.20
56256;DHT22;57229;51.432;-2.598;2022-08-18T11:10:00;25.50;79.50
56256;DHT22;57229;51.432;-2.598;2022-08-18T11:15:36;25.70;78.90
56256;DHT22;57229;51.432;-2.598;2022-08-18T11:29:32;24.80;81.00
56256;DHT22;57229;51.432;-2.598;2022-08-18T11:32:16;24.80;81.10
56256;DHT22;57229;51.432;-2.598;2022-08-18T11:34:48;24.80;80.80
56256;DHT22;57229;51.432;-2.598;2022-08-18T11:37:34;24.80;80.80
56256;DHT22;57229;51.432;-2.598;2022-08-18T11:40:04;24.70;81.10
56256;DHT22;57229;51.432;-2.598;2022-08-18T11:42:36;24.70;81.20
56256;DHT22;57229;51.432;-2.598;2022-08-18T11:45:19;24.60;81.50
56256;DHT22;57229;51.432;-2.598;2022-08-18T11:53:23;24.20;82.40
56256;DHT22;57229;51.432;-2.598;2022-08-18T11:58:57;24.10;82.90
56256;DHT22;57229;51.432;-2.598;2022-08-18T12:11:58;23.80;83.70
56256;DHT22;57229;51.432;-2.598;2022-08-18T12:14:31;23.80;83.90
56256;DHT22;57229;51.432;-2.598;2022-08-18T12:16:58;23.80;84.10
56256;DHT22;57229;51.432;-2.598;2022-08-18T12:19:24;23.80;84.00
56256;DHT22;57229;51.432;-2.598;2022-08-18T12:21:56;23.80;84.00
56256;DHT22;57229;51.432;-2.598;2022-08-18T12:24:30;23.80;84.00
56256;DHT22;57229;51.432;-2.598;2022-08-18T12:26:56;23.80;84.10
56256;DHT22;57229;51.432;-2.598;2022-08-18T12:29:23;23.80;84.10
56256;DHT22;57229;51.432;-2.598;2022-08-18T12:31:51;23.80;84.10
56256;DHT22;57229;51.432;-2.598;2022-08-18T12:34:19;23.80;84.10
56256;DHT22;57229;51.432;-2.598;2022-08-18T12:36:50;23.80;84.10
56256;DHT22;57229;51.432;-2.598;2022-08-18T12:39:17;23.80;83.90
56256;DHT22;57229;51.432;-2.598;2022-08-18T12:41:43;23.80;83.90
56256;DHT22;57229;51.432;-2.598;2022-08-18T12:44:09;23.80;84.00
56256;DHT22;57229;51.432;-2.598;2022-08-18T12:46:34;23.80;84.10
56256;DHT22;57229;51.432;-2.598;2022-08-18T12:49:02;23.80;84.10
56256;DHT22;57229;51.432;-2.598;2022-08-18T12:51:29;23.80;84.10
56256;DHT22;57229;51.432;-2.598;2022-08-18T12:53:55;23.80;84.10
56256;DHT22;57229;51.432;-2.598;2022-08-18T12:56:28;23.80;84.10
56256;DHT22;57229;51.432;-2.598;2022-08-18T12:59:00;23.80;84.10
56256;DHT22;57229;51.432;-2.598;2022-08-18T13:01:26;23.70;84.10
56256;DHT22;57229;51.432;-2.598;2022-08-18T13:03:54;23.70;84.10
56256;DHT22;57229;51.432;-2.598;2022-08-18T13:06:21;23.70;84.10
56256;DHT22;57229;51.432;-2.598;2022-08-18T13:08:48;23.70;84.10
56256;DHT22;57229;51.432;-2.598;2022-08-18T13:11:15;23.80;84.10
56256;DHT22;57229;51.432;-2.598;2022-08-18T13:13:42;23.80;84.10
56256;DHT22;57229;51.432;-2.598;2022-08-18T13:16:09;23.80;83.80
56256;DHT22;57229;51.432;-2.598;2022-08-18T13:18:35;23.80;83.40
56256;DHT22;57229;51.432;-2.598;2022-08-18T13:21:02;23.90;83.70
56256;DHT22;57229;51.432;-2.598;2022-08-18T13:23:29;23.90;83.50
56256;DHT22;57229;51.432;-2.598;2022-08-18T13:25:58;23.90;83.50
56256;DHT22;57229;51.432;-2.598;2022-08-18T13:28:24;23.90;83.80
56256;DHT22;57229;51.432;-2.598;2022-08-18T13:30:50;23.90;83.70
56256;DHT22;57229;51.432;-2.598;2022-08-18T13:33:16;23.90;84.40
56256;DHT22;57229;51.432;-2.598;2022-08-18T13:35:44;23.90;83.70
56256;DHT22;57229;51.432;-2.598;2022-08-18T13:38:11;23.90;83.60
56256;DHT22;57229;51.432;-2.598;2022-08-18T13:40:38;23.90;83.70
56256;DHT22;57229;51.432;-2.598;2022-08-18T13:43:04;23.90;83.70
56256;DHT22;57229;51.432;-2.598;2022-08-18T13:45:30;23.90;83.60
56256;DHT22;57229;51.432;-2.598;2022-08-18T13:47:55;23.90;83.20
56256;DHT22;57229;51.432;-2.598;2022-08-18T13:50:21;23.90;83.60
56256;DHT22;57229;51.432;-2.598;2022-08-18T13:52:47;23.90;83.30
56256;DHT22;57229;51.432;-2.598;2022-08-18T13:55:16;23.90;83.50
56256;DHT22;57229;51.432;-2.598;2022-08-18T13:57:42;23.90;83.50
56256;DHT22;57229;51.432;-2.598;2022-08-18T14:00:20;23.90;83.40
56256;DHT22;57229;51.432;-2.598;2022-08-18T14:02:49;23.90;83.20
56256;DHT22;57229;51.432;-2.598;2022-08-18T14:05:20;23.90;83.60
56256;DHT22;57229;51.432;-2.598;2022-08-18T14:07:46;23.90;83.50
56256;DHT22;57229;51.432;-2.598;2022-08-18T14:10:12;23.90;83.40
56256;DHT22;57229;51.432;-2.598;2022-08-18T14:12:39;23.90;83.40
56256;DHT22;57229;51.432;-2.598;2022-08-18T14:15:07;23.90;83.80
56256;DHT22;57229;51.432;-2.598;2022-08-18T14:17:34;23.90;83.20
56256;DHT22;57229;51.432;-2.598;2022-08-18T14:20:00;23.90;83.30
56256;DHT22;57229;51.432;-2.598;2022-08-18T14:22:44;23.90;83.50
56256;DHT22;57229;51.432;-2.598;2022-08-18T14:25:29;23.90;83.40
56256;DHT22;57229;51.432;-2.598;2022-08-18T14:28:14;23.90;83.20
56256;DHT22;57229;51.432;-2.598;2022-08-18T14:30:43;23.90;83.20
56256;DHT22;57229;51.432;-2.598;2022-08-18T14:33:09;23.90;83.20
56256;DHT22;57229;51.432;-2.598;2022-08-18T14:35:36;23.90;83.20
56256;DHT22;57229;51.432;-2.598;2022-08-18T14:38:02;23.90;83.50
56256;DHT22;57229;51.432;-2.598;2022-08-18T14:40:30;23.90;83.60
56256;DHT22;57229;51.432;-2.598;2022-08-18T14:42:56;23.90;83.70
56256;DHT22;57229;51.432;-2.598;2022-08-18T14:45:24;23.90;83.70
56256;DHT22;57229;51.432;-2.598;2022-08-18T14:47:50;23.80;83.80
56256;DHT22;57229;51.432;-2.598;2022-08-18T14:50:21;23.90;83.90
56256;DHT22;57229;51.432;-2.598;2022-08-18T14:52:47;23.90;84.00
56256;DHT22;57229;51.432;-2.598;2022-08-18T14:55:14;23.80;84.00
56256;DHT22;57229;51.432;-2.598;2022-08-18T14:57:41;23.90;84.10
56256;DHT22;57229;51.432;-2.598;2022-08-18T15:00:10;23.80;84.10
56256;DHT22;57229;51.432;-2.598;2022-08-18T15:02:37;23.80;84.20
56256;DHT22;57229;51.432;-2.598;2022-08-18T15:05:04;23.80;84.10
56256;DHT22;57229;51.432;-2.598;2022-08-18T15:07:30;23.80;84.10
56256;DHT22;57229;51.432;-2.598;2022-08-18T15:09:56;23.80;84.10
56256;DHT22;57229;51.432;-2.598;2022-08-18T15:12:23;23.80;84.10
56256;DHT22;57229;51.432;-2.598;2022-08-18T15:14:49;23.80;84.10
56256;DHT22;57229;51.432;-2.598;2022-08-18T15:17:15;23.80;84.10
56256;DHT22;57229;51.432;-2.598;2022-08-18T15:19:41;23.80;84.10
56256;DHT22;57229;51.432;-2.598;2022-08-18T15:22:08;23.80;84.10
56256;DHT22;57229;51.432;-2.598;2022-08-18T15:24:52;23.80;84.10
56256;DHT22;57229;51.432;-2.598;2022-08-18T15:27:37;23.80;84.10
56256;DHT22;57229;51.432;-2.598;2022-08-18T15:30:06;23.80;84.10
56256;DHT22;57229;51.432;-2.598;2022-08-18T15:32:33;23.80;84.10
56256;DHT22;57229;51.432;-2.598;2022-08-18T15:34:59;23.80;84.10
56256;DHT22;57229;51.432;-2.598;2022-08-18T15:37:26;23.80;84.10
56256;DHT22;57229;51.432;-2.598;2022-08-18T15:40:09;24.10;84.30
56256;DHT22;57229;51.432;-2.598;2022-08-18T15:42:45;23.80;84.10
56256;DHT22;57229;51.432;-2.598;2022-08-18T15:45:14;23.80;84.10
56256;DHT22;57229;51.432;-2.598;2022-08-18T15:47:41;23.70;84.10
56256;DHT22;57229;51.432;-2.598;2022-08-18T15:50:08;23.80;84.10
56256;DHT22;57229;51.432;-2.598;2022-08-18T15:52:34;23.80;84.10
56256;DHT22;57229;51.432;-2.598;2022-08-18T15:55:00;23.80;84.10
56256;DHT22;57229;51.432;-2.598;2022-08-18T15:57:26;23.80;84.10
56256;DHT22;57229;51.432;-2.598;2022-08-18T15:59:53;23.80;84.10
56256;DHT22;57229;51.432;-2.598;2022-08-18T16:02:20;23.80;84.10
56256;DHT22;57229;51.432;-2.598;2022-08-18T16:04:45;23.80;84.10
56256;DHT22;57229;51.432;-2.598;2022-08-18T16:07:11;23.80;84.10
56256;DHT22;57229;51.432;-2.598;2022-08-18T16:09:38;23.80;84.10
56256;DHT22;57229;51.432;-2.598;2022-08-18T16:12:07;23.70;84.00
56256;DHT22;57229;51.432;-2.598;2022-08-18T16:14:36;23.80;84.00
56256;DHT22;57229;51.432;-2.598;2022-08-18T16:17:02;23.80;84.00
56256;DHT22;57229;51.432;-2.598;2022-08-18T16:19:27;23.80;84.00
56256;DHT22;57229;51.432;-2.598;2022-08-18T16:21:54;23.80;84.00
56256;DHT22;57229;51.432;-2.598;2022-08-18T16:24:21;23.80;84.00
56256;DHT22;57229;51.432;-2.598;2022-08-18T16:26:48;23.80;84.00
56256;DHT22;57229;51.432;-2.598;2022-08-18T16:29:16;23.80;84.00
56256;DHT22;57229;51.432;-2.598;2022-08-18T16:31:42;23.80;84.00
56256;DHT22;57229;51.432;-2.598;2022-08-18T16:34:07;23.80;83.90
56256;DHT22;57229;51.432;-2.598;2022-08-18T16:36:33;23.80;84.00
56256;DHT22;57229;51.432;-2.598;2022-08-18T16:39:00;23.80;83.90
56256;DHT22;57229;51.432;-2.598;2022-08-18T16:41:26;23.80;83.90
56256;DHT22;57229;51.432;-2.598;2022-08-18T16:43:51;23.80;83.90
56256;DHT22;57229;51.432;-2.598;2022-08-18T16:46:21;23.80;83.90
56256;DHT22;57229;51.432;-2.598;2022-08-18T16:48:52;23.80;83.90
56256;DHT22;57229;51.432;-2.598;2022-08-18T16:51:20;23.80;83.90
56256;DHT22;57229;51.432;-2.598;2022-08-18T16:53:47;23.80;83.90
56256;DHT22;57229;51.432;-2.598;2022-08-18T16:56:16;23.80;84.20
56256;DHT22;57229;51.432;-2.598;2022-08-18T16:58:42;23.80;83.90
56256;DHT22;57229;51.432;-2.598;2022-08-18T17:01:26;23.80;83.90
56256;DHT22;57229;51.432;-2.598;2022-08-18T17:04:13;23.80;83.90
56256;DHT22;57229;51.432;-2.598;2022-08-18T17:06:39;23.80;83.90
56256;DHT22;57229;51.432;-2.598;2022-08-18T17:09:05;23.80;83.90
56256;DHT22;57229;51.432;-2.598;2022-08-18T17:11:31;23.80;84.00
56256;DHT22;57229;51.432;-2.598;2022-08-18T17:13:59;23.80;84.00
56256;DHT22;57229;51.432;-2.598;2022-08-18T17:16:26;23.80;84.00
56256;DHT22;57229;51.432;-2.598;2022-08-18T17:18:53;23.80;84.00
56256;DHT22;57229;51.432;-2.598;2022-08-18T17:21:25;23.80;83.90
56256;DHT22;57229;51.432;-2.598;2022-08-18T17:23:52;23.80;83.90
56256;DHT22;57229;51.432;-2.598;2022-08-18T17:29:34;23.80;83.90
56256;DHT22;57229;51.432;-2.598;2022-08-18T17:32:03;23.80;83.80
56256;DHT22;57229;51.432;-2.598;2022-08-18T17:34:42;23.80;83.80
56256;DHT22;57229;51.432;-2.598;2022-08-18T17:37:14;23.80;83.80
56256;DHT22;57229;51.432;-2.598;2022-08-18T17:39:53;23.80;83.80
56256;DHT22;57229;51.432;-2.598;2022-08-18T17:42:20;23.80;83.80
56256;DHT22;57229;51.432;-2.598;2022-08-18T17:44:55;23.70;83.70
56256;DHT22;57229;51.432;-2.598;2022-08-18T17:47:29;23.80;83.80
56256;DHT22;57229;51.432;-2.598;2022-08-18T17:49:56;23.70;83.80
56256;DHT22;57229;51.432;-2.598;2022-08-18T17:52:43;23.80;83.80
56256;DHT22;57229;51.432;-2.598;2022-08-18T17:55:29;23.70;83.80
56256;DHT22;57229;51.432;-2.598;2022-08-18T17:58:47;23.80;84.00
56256;DHT22;57229;51.432;-2.598;2022-08-18T18:00:52;23.80;84.10
56256;DHT22;57229;51.432;-2.598;2022-08-18T18:03:18;23.70;84.10
56256;DHT22;57229;51.432;-2.598;2022-08-18T18:05:50;23.80;84.10
56256;DHT22;57229;51.432;-2.598;2022-08-18T18:08:17;23.70;84.10
56256;DHT22;57229;51.432;-2.598;2022-08-18T18:10:48;23.70;84.10
56256;DHT22;57229;51.432;-2.598;2022-08-18T18:15:44;23.70;84.10
56256;DHT22;57229;51.432;-2.598;2022-08-18T18:18:44;23.70;84.10
56256;DHT22;57229;51.432;-2.598;2022-08-18T18:23:41;23.70;84.10
56256;DHT22;57229;51.432;-2.598;2022-08-18T18:26:26;23.70;84.10